createdAt,value
2018-07-20T00:00:26.450Z,21.30
2018-07-20T00:02:54.565Z,21.30
2018-07-20T00:05:22.731Z,21.30
2018-07-20T00:07:50.866Z,21.30
2018-07-20T00:10:19.053Z,21.20
2018-07-20T00:12:47.250Z,21.20
2018-07-20T00:15:15.385Z,21.20
2018-07-20T00:17:43.729Z,21.20
2018-07-20T00:20:11.894Z,21.20
2018-07-20T00:22:40.034Z,21.20
2018-07-20T00:25:08.197Z,21.20
2018-07-20T00:27:36.328Z,21.20
2018-07-20T00:30:04.567Z,21.20
2018-07-20T00:32:32.693Z,21.20
2018-07-20T00:35:00.841Z,21.20
2018-07-20T00:37:28.965Z,21.20
2018-07-20T00:39:57.094Z,21.20
2018-07-20T00:42:25.246Z,21.20
2018-07-20T00:44:53.362Z,21.20
2018-07-20T00:47:21.511Z,21.20
2018-07-20T00:49:49.645Z,21.20
2018-07-20T00:52:17.773Z,21.20
2018-07-20T00:54:45.932Z,21.20
2018-07-20T00:57:14.073Z,21.20
2018-07-20T00:59:42.211Z,21.20
2018-07-20T01:02:10.355Z,21.20
2018-07-20T01:04:38.513Z,21.20
2018-07-20T01:07:06.657Z,21.20
2018-07-20T01:09:34.799Z,21.10
2018-07-20T01:12:02.937Z,21.10
2018-07-20T01:14:31.061Z,21.10
2018-07-20T01:16:59.205Z,21.10
2018-07-20T01:19:27.325Z,21.10
2018-07-20T01:21:55.462Z,21.10
2018-07-20T01:24:23.581Z,21.00
2018-07-20T01:26:51.705Z,21.00
2018-07-20T01:29:19.896Z,21.00
2018-07-20T01:31:48.089Z,21.00
2018-07-20T01:34:16.226Z,21.00
2018-07-20T01:36:44.365Z,20.90
2018-07-20T01:39:12.492Z,20.90
2018-07-20T01:41:40.612Z,20.90
2018-07-20T01:44:09.176Z,20.90
2018-07-20T01:46:37.381Z,20.90
2018-07-20T01:49:05.514Z,20.90
2018-07-20T01:51:33.748Z,20.90
2018-07-20T01:54:01.892Z,20.80
2018-07-20T01:56:30.010Z,20.80
2018-07-20T01:58:58.181Z,20.80
2018-07-20T02:01:26.314Z,20.80
2018-07-20T02:03:54.529Z,20.80
2018-07-20T02:06:22.649Z,20.80
2018-07-20T02:08:50.791Z,20.80
2018-07-20T02:11:18.922Z,20.80
2018-07-20T02:13:47.059Z,20.70
2018-07-20T02:16:15.208Z,20.80
2018-07-20T02:18:43.334Z,20.70
2018-07-20T02:21:11.473Z,20.70
2018-07-20T02:23:39.609Z,20.70
2018-07-20T02:26:07.745Z,20.60
2018-07-20T02:28:35.878Z,20.60
2018-07-20T02:31:04.021Z,20.60
2018-07-20T02:33:32.163Z,20.50
2018-07-20T02:36:00.367Z,20.50
2018-07-20T02:38:28.495Z,20.50
2018-07-20T02:40:56.645Z,20.40
2018-07-20T02:43:24.794Z,20.40
2018-07-20T02:45:52.915Z,20.40
2018-07-20T02:48:21.050Z,20.40
2018-07-20T02:50:49.177Z,20.40
2018-07-20T02:53:17.314Z,20.40
2018-07-20T02:55:45.497Z,20.40
2018-07-20T02:58:13.776Z,20.40
2018-07-20T03:00:42.016Z,20.40
2018-07-20T03:03:10.138Z,20.40
2018-07-20T03:05:38.283Z,20.40
2018-07-20T03:08:06.498Z,20.40
2018-07-20T03:10:34.653Z,20.40
2018-07-20T03:15:30.686Z,20.40
2018-07-20T03:17:58.850Z,20.40
2018-07-20T03:20:27.033Z,20.40
2018-07-20T03:22:55.157Z,20.40
2018-07-20T03:25:23.286Z,20.40
2018-07-20T03:27:51.603Z,20.40
2018-07-20T03:30:19.731Z,20.40
2018-07-20T03:32:47.941Z,20.40
2018-07-20T03:35:16.005Z,20.40
2018-07-20T03:37:44.129Z,20.40
2018-07-20T03:40:12.261Z,20.40
2018-07-20T03:42:40.424Z,20.30
2018-07-20T03:45:08.625Z,20.30
2018-07-20T03:47:36.759Z,20.30
2018-07-20T03:50:05.471Z,20.30
2018-07-20T03:52:33.681Z,20.30
2018-07-20T03:55:01.830Z,20.30
2018-07-20T03:57:29.957Z,20.30
2018-07-20T03:59:58.077Z,20.20
2018-07-20T04:02:26.256Z,20.20
2018-07-20T04:04:54.362Z,20.20
2018-07-20T04:07:22.533Z,20.20
2018-07-20T04:09:50.664Z,20.20
2018-07-20T04:12:18.826Z,20.20
2018-07-20T04:14:47.017Z,20.20
2018-07-20T04:17:15.153Z,20.20
2018-07-20T04:19:43.272Z,20.20
2018-07-20T04:22:11.386Z,20.20
2018-07-20T04:24:39.496Z,20.20
2018-07-20T04:27:07.625Z,20.20
2018-07-20T04:29:35.738Z,20.10
2018-07-20T04:32:03.861Z,20.10
2018-07-20T04:34:31.985Z,20.10
2018-07-20T04:37:00.131Z,20.10
2018-07-20T04:39:28.366Z,20.10
2018-07-20T04:41:56.677Z,20.10
2018-07-20T04:44:24.813Z,20.10
2018-07-20T04:46:52.951Z,20.00
2018-07-20T04:49:21.107Z,20.00
2018-07-20T04:51:49.233Z,20.00
2018-07-20T04:54:17.373Z,20.00
2018-07-20T04:56:45.493Z,20.00
2018-07-20T04:59:13.645Z,20.00
2018-07-20T05:01:41.784Z,20.00
2018-07-20T05:04:09.901Z,20.00
2018-07-20T05:06:38.034Z,19.90
2018-07-20T05:09:08.003Z,20.00
2018-07-20T05:11:36.145Z,20.00
2018-07-20T05:14:04.433Z,20.00
2018-07-20T05:16:32.570Z,19.90
2018-07-20T05:19:00.689Z,20.00
2018-07-20T05:21:28.822Z,20.00
2018-07-20T05:23:57.091Z,20.00
2018-07-20T05:26:25.217Z,20.00
2018-07-20T05:28:53.340Z,20.00
2018-07-20T05:31:21.464Z,20.00
2018-07-20T05:33:49.613Z,20.00
2018-07-20T05:36:17.731Z,20.00
2018-07-20T05:38:45.881Z,20.00
2018-07-20T05:41:14.009Z,20.00
2018-07-20T05:43:42.129Z,20.00
2018-07-20T05:46:10.265Z,20.00
2018-07-20T05:48:38.408Z,20.00
2018-07-20T05:51:06.553Z,20.00
2018-07-20T05:53:34.690Z,20.00
2018-07-20T05:56:02.885Z,20.10
2018-07-20T05:58:31.016Z,20.10
2018-07-20T06:00:59.177Z,20.10
2018-07-20T06:03:27.317Z,20.10
2018-07-20T06:05:55.446Z,20.10
2018-07-20T06:08:23.577Z,20.10
2018-07-20T06:10:51.733Z,20.20
2018-07-20T06:13:19.870Z,20.20
2018-07-20T06:15:48.014Z,20.20
2018-07-20T06:18:16.158Z,20.30
2018-07-20T06:20:44.318Z,20.30
2018-07-20T06:23:12.444Z,20.30
2018-07-20T06:25:40.595Z,20.40
2018-07-20T06:28:08.726Z,20.40
2018-07-20T06:30:36.844Z,20.40
2018-07-20T06:33:05.177Z,20.50
2018-07-20T06:35:33.317Z,20.50
2018-07-20T06:38:01.525Z,20.50
2018-07-20T06:40:29.678Z,20.60
2018-07-20T06:42:57.788Z,20.60
2018-07-20T06:45:25.920Z,20.70
2018-07-20T06:47:54.037Z,20.70
2018-07-20T06:50:22.199Z,20.80
2018-07-20T06:52:50.327Z,20.80
2018-07-20T06:55:18.473Z,20.90
2018-07-20T07:00:14.590Z,21.00
2018-07-20T07:02:42.725Z,21.00
2018-07-20T07:05:11.272Z,21.10
2018-07-20T07:07:39.481Z,21.10
2018-07-20T07:10:08.584Z,21.20
2018-07-20T07:12:36.781Z,21.30
2018-07-20T07:15:05.132Z,21.50
2018-07-20T07:17:33.214Z,21.60
2018-07-20T07:20:01.369Z,21.80
2018-07-20T07:22:29.505Z,21.90
2018-07-20T07:24:57.632Z,22.00
2018-07-20T07:27:25.958Z,22.20
2018-07-20T07:29:54.080Z,22.30
2018-07-20T07:32:22.224Z,22.40
2018-07-20T07:34:50.373Z,22.50
2018-07-20T07:37:18.638Z,22.60
2018-07-20T07:39:46.782Z,22.70
2018-07-20T07:42:14.963Z,22.70
2018-07-20T07:44:43.122Z,22.80
2018-07-20T07:47:11.347Z,22.80
2018-07-20T07:49:39.502Z,22.80
2018-07-20T07:52:07.770Z,22.90
2018-07-20T07:54:35.896Z,22.90
2018-07-20T07:57:04.074Z,23.00
2018-07-20T07:59:32.209Z,23.00
2018-07-20T08:02:00.357Z,23.10
2018-07-20T08:04:28.512Z,23.20
2018-07-20T08:06:56.610Z,23.20
2018-07-20T08:09:24.749Z,23.30
2018-07-20T08:11:52.909Z,23.30
2018-07-20T08:14:21.095Z,23.40
2018-07-20T08:16:49.206Z,23.50
2018-07-20T08:19:17.415Z,23.50
2018-07-20T08:21:45.534Z,23.60
2018-07-20T08:24:13.689Z,23.60
2018-07-20T08:26:41.829Z,23.70
2018-07-20T08:29:09.981Z,23.80
2018-07-20T08:31:38.145Z,23.80
2018-07-20T08:34:06.306Z,23.80
2018-07-20T08:36:34.437Z,23.90
2018-07-20T08:39:02.574Z,23.90
2018-07-20T08:41:30.707Z,24.00
2018-07-20T08:43:58.871Z,24.10
2018-07-20T08:46:26.995Z,24.10
2018-07-20T08:48:55.138Z,24.20
2018-07-20T08:51:23.270Z,24.20
2018-07-20T08:53:51.398Z,24.30
2018-07-20T08:56:19.529Z,24.40
2018-07-20T08:58:48.016Z,24.40
2018-07-20T09:01:15.785Z,24.50
2018-07-20T09:03:43.969Z,24.50
2018-07-20T09:06:12.050Z,24.60
2018-07-20T09:08:40.166Z,24.60
2018-07-20T09:11:08.292Z,24.70
2018-07-20T09:13:36.480Z,24.70
2018-07-20T09:16:04.554Z,24.70
2018-07-20T09:18:32.676Z,24.70
2018-07-20T09:21:00.819Z,24.80
2018-07-20T09:23:28.923Z,24.90
2018-07-20T09:25:57.042Z,24.90
2018-07-20T09:28:25.246Z,25.00
2018-07-20T09:30:53.304Z,25.00
2018-07-20T09:33:21.426Z,25.10
2018-07-20T09:35:49.541Z,25.10
2018-07-20T09:38:17.759Z,25.20
2018-07-20T09:40:45.893Z,25.20
2018-07-20T09:43:14.050Z,25.30
2018-07-20T09:45:42.170Z,25.40
2018-07-20T09:48:10.338Z,25.40
2018-07-20T09:50:38.461Z,25.40
2018-07-20T09:53:06.682Z,25.50
2018-07-20T09:55:34.808Z,25.60
2018-07-20T09:58:02.932Z,25.60
2018-07-20T10:00:36.357Z,25.70
2018-07-20T10:03:04.616Z,25.70
2018-07-20T10:05:32.771Z,25.80
2018-07-20T10:08:00.899Z,25.90
2018-07-20T10:10:29.046Z,25.90
2018-07-20T10:12:57.462Z,25.90
2018-07-20T10:15:25.594Z,26.00
2018-07-20T10:17:53.722Z,26.00
2018-07-20T10:20:21.852Z,26.00
2018-07-20T10:22:49.982Z,26.10
2018-07-20T10:25:18.110Z,26.10
2018-07-20T10:27:46.263Z,26.20
2018-07-20T10:30:14.458Z,26.20
2018-07-20T10:32:42.598Z,26.20
2018-07-20T10:35:10.717Z,26.30
2018-07-20T10:37:38.855Z,26.30
2018-07-20T10:40:07.001Z,26.40
2018-07-20T10:42:35.119Z,26.40
2018-07-20T10:45:03.262Z,26.40
2018-07-20T10:47:31.389Z,26.50
2018-07-20T10:52:27.508Z,26.60
2018-07-20T10:54:55.698Z,26.70
2018-07-20T10:57:23.838Z,26.70
2018-07-20T10:59:52.006Z,26.70
2018-07-20T11:02:20.281Z,26.80
2018-07-20T11:04:48.507Z,26.80
2018-07-20T11:07:16.657Z,26.80
2018-07-20T11:09:44.829Z,26.80
2018-07-20T11:12:12.964Z,26.80
2018-07-20T11:14:41.128Z,26.90
2018-07-20T11:17:09.259Z,26.90
2018-07-20T11:19:37.382Z,27.00
2018-07-20T11:22:05.582Z,27.00
2018-07-20T11:24:33.717Z,27.00
2018-07-20T11:27:01.862Z,27.10
2018-07-20T11:29:30.078Z,27.10
2018-07-20T11:31:58.201Z,27.10
2018-07-20T11:34:26.410Z,27.20
2018-07-20T11:36:54.572Z,27.20
2018-07-20T11:39:22.709Z,27.30
2018-07-20T11:41:50.849Z,27.30
2018-07-20T11:44:19.069Z,27.30
2018-07-20T11:46:47.219Z,27.30
2018-07-20T11:49:15.337Z,27.40
2018-07-20T11:51:43.498Z,27.40
2018-07-20T11:54:11.796Z,27.40
2018-07-20T11:56:39.949Z,27.40
2018-07-20T11:59:08.152Z,27.50
2018-07-20T12:01:36.301Z,27.50
2018-07-20T12:04:04.432Z,27.50
2018-07-20T12:06:32.570Z,27.50
2018-07-20T12:09:00.794Z,27.50
2018-07-20T12:11:30.180Z,27.50
2018-07-20T12:13:58.442Z,27.60
2018-07-20T12:16:26.594Z,27.50
2018-07-20T12:18:54.775Z,27.60
2018-07-20T12:21:22.885Z,27.60
2018-07-20T12:23:51.131Z,27.60
2018-07-20T12:26:19.225Z,27.60
2018-07-20T12:28:47.374Z,27.50
2018-07-20T12:31:15.653Z,27.50
2018-07-20T12:33:43.778Z,27.50
2018-07-20T12:36:11.907Z,27.50
2018-07-20T12:38:40.031Z,27.50
2018-07-20T12:41:08.177Z,27.40
2018-07-20T12:43:36.308Z,27.50
2018-07-20T12:46:04.507Z,27.50
2018-07-20T12:48:32.676Z,27.60
2018-07-20T12:51:00.901Z,27.60
2018-07-20T12:53:29.059Z,27.60
2018-07-20T12:55:57.350Z,27.60
2018-07-20T12:58:25.603Z,27.60
2018-07-20T13:00:53.777Z,27.70
2018-07-20T13:03:21.922Z,27.70
2018-07-20T13:05:50.086Z,27.80
2018-07-20T13:08:18.218Z,27.80
2018-07-20T13:10:46.360Z,27.90
2018-07-20T13:13:14.538Z,27.90
2018-07-20T13:15:42.693Z,28.00
2018-07-20T13:18:10.886Z,28.00
2018-07-20T13:20:39.215Z,28.10
2018-07-20T13:23:07.435Z,28.10
2018-07-20T13:25:35.617Z,28.20
2018-07-20T13:28:03.773Z,28.20
2018-07-20T13:30:31.969Z,28.20
2018-07-20T13:33:00.133Z,28.20
2018-07-20T13:35:28.882Z,28.10
2018-07-20T13:37:57.030Z,28.10
2018-07-20T13:40:25.154Z,28.00
2018-07-20T13:42:53.305Z,27.90
2018-07-20T13:45:21.495Z,27.90
2018-07-20T13:50:18.370Z,27.80
2018-07-20T13:52:46.591Z,27.80
2018-07-20T13:55:14.711Z,27.90
2018-07-20T13:57:42.880Z,27.90
2018-07-20T14:00:11.069Z,27.90
2018-07-20T14:02:39.270Z,27.90
2018-07-20T14:05:07.408Z,27.90
2018-07-20T14:07:35.578Z,27.90
2018-07-20T14:10:03.709Z,27.90
2018-07-20T14:12:31.845Z,27.90
2018-07-20T14:15:00.259Z,27.90
2018-07-20T14:17:28.392Z,27.90
2018-07-20T14:19:56.529Z,27.90
2018-07-20T14:22:24.791Z,27.90
2018-07-20T14:24:52.933Z,27.90
2018-07-20T14:27:21.078Z,27.90
2018-07-20T14:29:49.234Z,27.90
2018-07-20T14:32:17.373Z,27.90
2018-07-20T14:34:45.526Z,27.90
2018-07-20T14:37:13.687Z,28.00
2018-07-20T14:39:41.819Z,28.00
2018-07-20T14:42:09.954Z,28.00
2018-07-20T14:44:38.101Z,28.00
2018-07-20T14:47:06.246Z,28.00
2018-07-20T14:49:34.396Z,28.00
2018-07-20T14:52:02.526Z,28.00
2018-07-20T14:54:30.676Z,28.00
2018-07-20T14:56:58.869Z,28.00
2018-07-20T14:59:27.018Z,28.00
2018-07-20T15:01:55.218Z,28.00
2018-07-20T15:04:23.354Z,28.00
2018-07-20T15:06:51.508Z,28.10
2018-07-20T15:09:19.642Z,28.10
2018-07-20T15:11:47.771Z,28.10
2018-07-20T15:14:15.906Z,28.10
2018-07-20T15:16:44.047Z,28.10
2018-07-20T15:19:12.170Z,28.10
2018-07-20T15:21:40.325Z,28.10
2018-07-20T15:24:08.472Z,28.10
2018-07-20T15:26:36.617Z,28.10
2018-07-20T15:29:04.753Z,28.10
2018-07-20T15:31:32.906Z,28.20
2018-07-20T15:34:01.127Z,28.20
2018-07-20T15:36:29.295Z,28.20
2018-07-20T15:38:57.422Z,28.20
2018-07-20T15:41:25.565Z,28.20
2018-07-20T15:43:53.748Z,28.20
2018-07-20T15:46:21.953Z,28.20
2018-07-20T15:48:49.985Z,28.20
2018-07-20T15:51:18.136Z,28.10
2018-07-20T15:53:46.325Z,28.10
2018-07-20T15:56:14.409Z,28.10
2018-07-20T15:58:42.546Z,28.10
2018-07-20T16:01:10.695Z,28.00
2018-07-20T16:03:38.824Z,28.00
2018-07-20T16:06:06.979Z,28.00
2018-07-20T16:08:35.115Z,28.00
2018-07-20T16:11:03.268Z,28.00
2018-07-20T16:13:31.406Z,27.90
2018-07-20T16:15:59.526Z,27.90
2018-07-20T16:18:27.722Z,27.90
2018-07-20T16:20:55.865Z,27.90
2018-07-20T16:23:24.073Z,27.80
2018-07-20T16:25:52.400Z,27.80
2018-07-20T16:28:20.485Z,27.80
2018-07-20T16:30:48.634Z,27.80
2018-07-20T16:33:16.781Z,27.80
2018-07-20T16:35:44.930Z,27.70
2018-07-20T16:38:13.062Z,27.70
2018-07-20T16:40:41.190Z,27.70
2018-07-20T16:43:09.341Z,27.70
2018-07-20T16:45:37.678Z,27.70
2018-07-20T16:48:05.926Z,27.60
2018-07-20T16:50:34.556Z,27.60
2018-07-20T16:53:02.702Z,27.60
2018-07-20T16:55:30.888Z,27.60
2018-07-20T16:57:59.040Z,27.60
2018-07-20T17:00:27.184Z,27.70
2018-07-20T17:02:55.325Z,27.60
2018-07-20T17:05:23.462Z,27.70
2018-07-20T17:07:51.612Z,27.70
2018-07-20T17:10:19.738Z,27.60
2018-07-20T17:12:47.898Z,27.70
2018-07-20T17:15:16.053Z,27.70
2018-07-20T17:17:44.206Z,27.70
2018-07-20T17:20:12.351Z,27.70
2018-07-20T17:22:40.568Z,27.70
2018-07-20T17:25:08.743Z,27.70
2018-07-20T17:27:36.865Z,27.70
2018-07-20T17:30:05.711Z,27.70
2018-07-20T17:32:33.852Z,27.70
2018-07-20T17:35:02.009Z,27.70
2018-07-20T17:37:30.290Z,27.70
2018-07-20T17:39:58.414Z,27.70
2018-07-20T17:42:26.557Z,27.70
2018-07-20T17:44:54.692Z,27.70
2018-07-20T17:47:22.858Z,27.70
2018-07-20T17:49:50.996Z,27.70
2018-07-20T17:52:19.126Z,27.70
2018-07-20T17:54:47.362Z,27.70
2018-07-20T17:57:15.502Z,27.70
2018-07-20T17:59:43.631Z,27.60
2018-07-20T18:02:11.785Z,27.60
2018-07-20T18:04:39.938Z,27.60
2018-07-20T18:07:08.078Z,27.60
2018-07-20T18:09:36.221Z,27.60
2018-07-20T18:12:04.374Z,27.60
2018-07-20T18:14:32.510Z,27.60
2018-07-20T18:17:00.802Z,27.60
2018-07-20T18:19:29.015Z,27.60
2018-07-20T18:21:57.175Z,27.60
2018-07-20T18:24:25.343Z,27.60
2018-07-20T18:26:53.564Z,27.60
2018-07-20T18:29:21.622Z,27.60
2018-07-20T18:31:49.814Z,27.60
2018-07-20T18:34:17.957Z,27.60
2018-07-20T18:36:46.122Z,27.60
2018-07-20T18:39:14.257Z,27.60
2018-07-20T18:41:42.423Z,27.60
2018-07-20T18:44:10.951Z,27.60
2018-07-20T18:46:39.275Z,27.60
2018-07-20T18:49:07.417Z,27.60
2018-07-20T18:51:35.579Z,27.50
2018-07-20T18:54:03.733Z,27.50
2018-07-20T18:56:31.888Z,27.50
2018-07-20T18:59:00.101Z,27.50
2018-07-20T19:01:28.230Z,27.50
2018-07-20T19:03:56.377Z,27.40
2018-07-20T19:06:24.526Z,27.40
2018-07-20T19:08:52.709Z,27.40
2018-07-20T19:11:20.861Z,27.30
2018-07-20T19:13:49.014Z,27.30
2018-07-20T19:16:17.166Z,27.30
2018-07-20T19:18:45.369Z,27.20
2018-07-20T19:21:13.529Z,27.20
2018-07-20T19:23:41.710Z,27.10
2018-07-20T19:26:09.807Z,27.10
2018-07-20T19:28:37.941Z,27.00
2018-07-20T19:31:06.067Z,27.00
2018-07-20T19:33:34.206Z,26.90
2018-07-20T19:36:02.379Z,26.90
2018-07-20T19:38:30.514Z,26.80
2018-07-20T19:40:58.964Z,26.80
2018-07-20T19:43:27.126Z,26.70
2018-07-20T19:45:55.254Z,26.70
2018-07-20T19:48:23.382Z,26.70
2018-07-20T19:50:51.641Z,26.60
2018-07-20T19:53:19.789Z,26.60
2018-07-20T19:55:47.932Z,26.50
2018-07-20T19:58:16.057Z,26.50
2018-07-20T20:00:44.246Z,26.40
2018-07-20T20:03:12.393Z,26.40
2018-07-20T20:05:40.543Z,26.40
2018-07-20T20:08:08.708Z,26.40
2018-07-20T20:10:36.846Z,26.30
2018-07-20T20:13:05.167Z,26.30
2018-07-20T20:15:33.352Z,26.30
2018-07-20T20:18:01.470Z,26.20
2018-07-20T20:20:29.612Z,26.20
2018-07-20T20:22:57.748Z,26.20
2018-07-20T20:25:25.885Z,26.10
2018-07-20T20:27:54.030Z,26.10
2018-07-20T20:30:22.177Z,26.10
2018-07-20T20:32:50.458Z,26.10
2018-07-20T20:35:18.614Z,26.00
2018-07-20T20:37:46.750Z,26.00
2018-07-20T20:40:14.895Z,26.00
2018-07-20T20:42:43.294Z,26.00
2018-07-20T20:45:11.450Z,26.00
2018-07-20T20:47:39.589Z,25.90
2018-07-20T20:50:08.185Z,25.90
2018-07-20T20:52:36.591Z,25.90
2018-07-20T20:55:04.735Z,25.90
2018-07-20T20:57:32.876Z,25.90
2018-07-20T21:00:01.019Z,25.90
2018-07-20T21:02:29.153Z,25.90
2018-07-20T21:04:57.277Z,25.80
2018-07-20T21:07:25.417Z,25.80
2018-07-20T21:09:53.635Z,25.80
2018-07-20T21:12:22.027Z,25.70
2018-07-20T21:14:50.139Z,25.70
2018-07-20T21:17:18.282Z,25.70
2018-07-20T21:19:46.445Z,25.70
2018-07-20T21:22:14.581Z,25.60
2018-07-20T21:24:42.960Z,25.60
2018-07-20T21:27:11.091Z,25.60
2018-07-20T21:29:39.220Z,25.60
2018-07-20T21:34:35.553Z,25.50
2018-07-20T21:37:03.921Z,25.50
2018-07-20T21:39:32.101Z,25.50
2018-07-20T21:42:00.201Z,25.40
2018-07-20T21:44:28.354Z,25.40
2018-07-20T21:46:56.483Z,25.40
2018-07-20T21:49:24.617Z,25.40
2018-07-20T21:54:20.682Z,25.30
2018-07-20T21:56:48.942Z,25.30
2018-07-20T21:59:17.146Z,25.30
2018-07-20T22:01:45.305Z,25.20
2018-07-20T22:04:13.430Z,25.20
2018-07-20T22:06:41.576Z,25.20
2018-07-20T22:09:10.994Z,25.20
2018-07-20T22:11:39.381Z,25.20
2018-07-20T22:14:07.957Z,25.20
2018-07-20T22:16:36.355Z,25.20
2018-07-20T22:19:04.604Z,25.10
2018-07-20T22:21:32.753Z,25.10
2018-07-20T22:24:00.892Z,25.10
2018-07-20T22:26:29.038Z,25.10
2018-07-20T22:28:57.187Z,25.10
2018-07-20T22:31:25.340Z,25.10
2018-07-20T22:33:53.470Z,25.10
2018-07-20T22:38:49.545Z,25.00
2018-07-20T22:41:17.814Z,25.00
2018-07-20T22:43:45.946Z,25.00
2018-07-20T22:46:14.082Z,24.90
2018-07-20T22:48:42.209Z,24.90
2018-07-20T22:51:10.351Z,24.90
2018-07-20T22:53:38.503Z,24.90
2018-07-20T22:56:06.632Z,24.90
2018-07-20T22:58:34.826Z,24.80
2018-07-20T23:01:02.981Z,24.80
2018-07-20T23:03:31.141Z,24.80
2018-07-20T23:05:59.311Z,24.80
2018-07-20T23:08:27.446Z,24.80
2018-07-20T23:10:55.602Z,24.70
2018-07-20T23:13:23.738Z,24.70
2018-07-20T23:15:51.898Z,24.70
2018-07-20T23:18:20.075Z,24.70
2018-07-20T23:20:48.224Z,24.70
2018-07-20T23:23:16.371Z,24.70
2018-07-20T23:25:44.540Z,24.70
2018-07-20T23:28:12.682Z,24.60
2018-07-20T23:30:40.809Z,24.60
2018-07-20T23:33:08.990Z,24.60
2018-07-20T23:35:37.122Z,24.50
2018-07-20T23:38:05.321Z,24.50
2018-07-20T23:40:33.446Z,24.50
2018-07-20T23:43:01.591Z,24.50
2018-07-20T23:45:29.733Z,24.40
2018-07-20T23:47:57.940Z,24.40
2018-07-20T23:50:26.078Z,24.40
2018-07-20T23:52:54.378Z,24.30
2018-07-20T23:55:22.512Z,24.30
2018-07-20T23:57:50.661Z,24.30
